Time;durP1;ratioP1;P1;durP2;ratioP2;P2;SDS_P1;SDS_P2;PMS_P1;PMS_P2;Temp;Humidity;BMP_temperature;BMP_pressure;BME280_temperature;BME280_humidity;BME280_pressure;Samples;Min_cycle;Max_cycle;Signal;HPM_P1;HPM_P2
2023/12/10 00:00:59;;;;;;;1999.90;999.90;;;;;;;-3.72;81.63;96486.28;5093555;28;20050;-61
2023/12/10 00:03:28;;;;;;;1999.90;999.90;;;;;;;-3.66;81.14;96480.41;5093469;28;20048;-62
2023/12/10 00:05:55;;;;;;;1999.90;999.90;;;;;;;-3.61;81.15;96491.56;5093505;28;20040;-61
2023/12/10 00:08:23;;;;;;;1999.90;999.90;;;;;;;-3.59;81.24;96492.44;5093498;28;20051;-61
2023/12/10 00:10:50;;;;;;;1999.90;999.90;;;;;;;-3.58;81.24;96496.72;5093459;28;20063;-61
2023/12/10 00:13:17;;;;;;;1999.90;999.90;;;;;;;-3.60;81.30;96495.84;5093324;28;20052;-62
2023/12/10 00:15:44;;;;;;;1999.90;999.90;;;;;;;-3.56;81.50;96500.19;5093263;28;20059;-61
2023/12/10 00:18:15;;;;;;;1999.90;999.90;;;;;;;-3.49;81.47;96502.84;5093329;28;20074;-60
2023/12/10 00:20:45;;;;;;;1999.90;999.90;;;;;;;-3.40;81.65;96504.69;5093187;28;20052;-63
2023/12/10 00:23:13;;;;;;;1999.90;999.90;;;;;;;-3.37;81.66;96510.69;5093164;28;20048;-63
2023/12/10 00:25:41;;;;;;;1999.90;999.90;;;;;;;-3.37;81.39;96510.69;5093169;28;20054;-61
2023/12/10 00:28:08;;;;;;;1999.90;999.90;;;;;;;-3.33;81.66;96511.63;5093031;28;20486;-64
2023/12/10 00:30:36;;;;;;;1999.90;999.90;;;;;;;-3.26;81.29;96494.66;5093119;28;20082;-62
2023/12/10 00:33:04;;;;;;;1999.90;999.90;;;;;;;-3.24;81.15;96496.44;5093066;28;20044;-61
2023/12/10 00:35:32;;;;;;;1999.90;999.90;;;;;;;-3.23;81.05;96487.03;5092718;28;20469;-63
2023/12/10 00:38:00;;;;;;;1999.90;999.90;;;;;;;-3.24;80.92;96482.75;5093025;28;20044;-63
2023/12/10 00:40:27;;;;;;;1999.90;999.90;;;;;;;-3.26;80.83;96484.44;5093006;28;20543;-63
2023/12/10 00:42:58;;;;;;;1999.90;999.90;;;;;;;-3.26;81.14;96471.63;5093048;28;20040;-61
2023/12/10 00:45:25;;;;;;;1999.90;999.90;;;;;;;-3.24;81.30;96477.66;5093275;28;20076;-62
2023/12/10 00:47:52;;;;;;;1999.90;999.90;;;;;;;-3.27;80.91;96480.16;5093226;28;20048;-61
2023/12/10 00:50:19;;;;;;;1999.90;999.90;;;;;;;-3.33;80.75;96474.13;5092908;28;20048;-61
2023/12/10 00:52:46;;;;;;;1999.90;999.90;;;;;;;-3.40;81.21;96469.75;5093037;28;20044;-61
2023/12/10 00:55:15;;;;;;;1999.90;999.90;;;;;;;-3.47;81.55;96467.91;5092931;28;20059;-64
2023/12/10 00:57:42;;;;;;;1999.90;999.90;;;;;;;-3.51;83.45;96469.56;5093118;28;20052;-64
2023/12/10 01:00:11;;;;;;;1999.90;999.90;;;;;;;-3.51;83.79;96467.00;5092852;28;20055;-65
2023/12/10 01:02:38;;;;;;;1999.90;999.90;;;;;;;-3.49;83.77;96457.63;5092897;28;20123;-64
2023/12/10 01:05:06;;;;;;;1999.90;999.90;;;;;;;-3.46;83.27;96455.13;5092970;28;20052;-63
2023/12/10 01:07:33;;;;;;;1999.90;999.90;;;;;;;-3.45;82.55;96456.00;5092936;28;20087;-64
2023/12/10 01:10:00;;;;;;;1999.90;999.90;;;;;;;-3.46;82.08;96450.00;5092841;28;20059;-61
2023/12/10 01:12:29;;;;;;;1999.90;999.90;;;;;;;-3.59;82.49;96456.63;5092787;28;20087;-63
2023/12/10 01:14:57;;;;;;;1999.90;999.90;;;;;;;-3.59;82.74;96448.09;5092735;28;20540;-60
2023/12/10 01:17:24;;;;;;;1999.90;999.90;;;;;;;-3.61;83.55;96455.75;5092769;28;20281;-61
2023/12/10 01:19:51;;;;;;;1999.90;999.90;;;;;;;-3.57;83.72;96444.75;5092654;28;20044;-63
2023/12/10 01:22:18;;;;;;;1999.90;999.90;;;;;;;-3.57;83.55;96447.31;5092675;28;20067;-62
2023/12/10 01:24:46;;;;;;;1999.90;999.90;;;;;;;-3.58;83.41;96454.94;5092497;28;20514;-63
2023/12/10 01:27:13;;;;;;;1999.90;999.90;;;;;;;-3.61;82.95;96442.94;5092674;28;20132;-60
2023/12/10 01:29:43;;;;;;;1999.90;999.90;;;;;;;-3.58;82.81;96443.00;5092436;28;20087;-62
2023/12/10 01:32:12;;;;;;;1999.90;999.90;;;;;;;-3.60;82.86;96434.47;5092592;28;20044;-62
2023/12/10 01:34:42;;;;;;;1999.90;999.90;;;;;;;-3.56;82.56;96425.13;5092495;28;20577;-63
2023/12/10 01:37:09;;;;;;;1999.90;999.90;;;;;;;-3.59;82.40;96418.28;5092562;28;20475;-61
2023/12/10 01:39:37;;;;;;;1999.90;999.90;;;;;;;-3.59;82.26;96423.38;5092426;28;20044;-61
2023/12/10 01:42:04;;;;;;;1999.90;999.90;;;;;;;-3.63;82.22;96421.63;5092458;28;20055;-62
2023/12/10 01:44:32;;;;;;;1999.90;999.90;;;;;;;-3.61;82.38;96425.06;5092414;28;20048;-63
2023/12/10 01:47:00;;;;;;;1999.90;999.90;;;;;;;-3.65;82.19;96422.44;5093862;28;20054;-62
2023/12/10 01:49:28;;;;;;;1999.90;999.90;;;;;;;-3.66;82.00;96425.81;5096027;28;20052;-61
2023/12/10 01:51:56;;;;;;;1999.90;999.90;;;;;;;-3.64;81.88;96429.28;5095834;28;20430;-63
2023/12/10 01:54:25;;;;;;;1999.90;999.90;;;;;;;-3.61;81.69;96429.31;5095894;28;20052;-63
2023/12/10 01:56:54;;;;;;;1999.90;999.90;;;;;;;-3.63;81.97;96429.31;5096248;28;20044;-63
2023/12/10 01:59:22;;;;;;;1999.90;999.90;;;;;;;-3.63;81.68;96426.75;5095795;28;20052;-61
2023/12/10 02:01:50;;;;;;;1999.90;999.90;;;;;;;-3.65;81.35;96422.44;5095892;28;20044;-61
2023/12/10 02:04:19;;;;;;;1999.90;999.90;;;;;;;-3.66;81.32;96411.34;5095793;28;20052;-63
2023/12/10 02:06:47;;;;;;;1999.90;999.90;;;;;;;-3.71;80.87;96402.72;5095776;28;20551;-62
2023/12/10 02:09:18;;;;;;;1999.90;999.90;;;;;;;-3.71;80.72;96407.84;5095693;28;20082;-63
2023/12/10 02:11:46;;;;;;;1999.90;999.90;;;;;;;-3.73;80.71;96407.81;5095586;28;20044;-61
2023/12/10 02:14:13;;;;;;;1999.90;999.90;;;;;;;-3.72;80.96;96407.00;5095647;28;20047;-61
2023/12/10 02:16:40;;;;;;;1999.90;999.90;;;;;;;-3.69;80.83;96399.38;5095504;28;20486;-63
2023/12/10 02:19:07;;;;;;;1999.90;999.90;;;;;;;-3.70;80.51;96399.34;5095435;28;20490;-62
2023/12/10 02:21:36;;;;;;;1999.90;999.90;;;;;;;-3.73;80.69;96392.47;5095374;28;20051;-60
2023/12/10 02:24:06;;;;;;;1999.90;999.90;;;;;;;-3.70;80.71;96401.91;5095297;28;20040;-64
2023/12/10 02:26:35;;;;;;;1999.90;999.90;;;;;;;-3.72;80.39;96401.88;5095421;28;20504;-62
2023/12/10 02:29:04;;;;;;;1999.90;999.90;;;;;;;-3.67;80.47;96396.84;5095058;28;20052;-64
2023/12/10 02:31:31;;;;;;;1999.90;999.90;;;;;;;-3.69;80.44;96398.50;5095353;28;20048;-60
2023/12/10 02:33:59;;;;;;;1999.90;999.90;;;;;;;-3.71;80.29;96390.81;5095163;28;20044;-64
2023/12/10 02:36:26;;;;;;;1999.90;999.90;;;;;;;-3.70;80.06;96392.53;5095049;28;20055;-61
2023/12/10 02:38:53;;;;;;;1999.90;999.90;;;;;;;-3.76;80.08;96392.44;5095293;28;20055;-64
2023/12/10 02:41:20;;;;;;;1999.90;999.90;;;;;;;-3.75;79.76;96390.72;5095019;28;20140;-63
2023/12/10 02:43:49;;;;;;;1999.90;999.90;;;;;;;-3.74;79.57;96393.31;5095066;28;20044;-62
2023/12/10 02:46:16;;;;;;;1999.90;999.90;;;;;;;-3.87;79.74;96392.25;5094778;28;20055;-61
2023/12/10 02:48:43;;;;;;;1999.90;999.90;;;;;;;-3.84;80.21;96381.22;5094924;28;20094;-61
2023/12/10 02:51:10;;;;;;;1999.90;999.90;;;;;;;-3.84;79.99;96383.78;5094902;28;20059;-63
2023/12/10 02:53:37;;;;;;;1999.90;999.90;;;;;;;-3.88;79.93;96387.13;5094820;28;20052;-64
2023/12/10 02:56:05;;;;;;;1999.90;999.90;;;;;;;-3.91;80.35;96376.84;5094821;28;20048;-60
2023/12/10 02:58:33;;;;;;;1999.90;999.90;;;;;;;-3.93;80.57;96376.81;5094156;28;20090;-62
2023/12/10 03:01:01;;;;;;;1999.90;999.90;;;;;;;-4.03;80.63;96390.28;5094641;28;20094;-60
2023/12/10 03:03:28;;;;;;;1999.90;999.90;;;;;;;-3.98;80.71;96394.63;5094719;28;20043;-63
2023/12/10 03:05:57;;;;;;;1999.90;999.90;;;;;;;-3.93;80.40;96394.72;5094404;28;20417;-63
2023/12/10 03:08:24;;;;;;;1999.90;999.90;;;;;;;-3.92;80.25;96393.03;5094524;28;20115;-62
2023/12/10 03:10:51;;;;;;;1999.90;999.90;;;;;;;-3.91;79.83;96387.94;5094253;28;20561;-62
2023/12/10 03:13:18;;;;;;;1999.90;999.90;;;;;;;-3.90;79.59;96394.78;5094480;28;20044;-63
2023/12/10 03:15:45;;;;;;;1999.90;999.90;;;;;;;-3.88;79.60;96388.00;5094532;28;20048;-64
2023/12/10 03:18:14;;;;;;;1999.90;999.90;;;;;;;-3.91;79.83;96394.75;5094282;28;20544;-61
2023/12/10 03:20:41;;;;;;;1999.90;999.90;;;;;;;-3.95;79.81;96396.38;5094125;28;20105;-63
2023/12/10 03:23:08;;;;;;;1999.90;999.90;;;;;;;-3.95;80.00;96401.47;5094077;28;20574;-63
2023/12/10 03:25:35;;;;;;;1999.90;999.90;;;;;;;-3.94;80.35;96403.22;5094215;28;20405;-60
2023/12/10 03:28:02;;;;;;;1999.90;999.90;;;;;;;-3.91;80.68;96395.63;5093910;28;20123;-64
2023/12/10 03:30:30;;;;;;;1999.90;999.90;;;;;;;-3.84;80.53;96400.00;5093986;28;20508;-62
2023/12/10 03:32:57;;;;;;;1999.90;999.90;;;;;;;-3.81;81.09;96405.16;5094035;28;20379;-63
2023/12/10 03:35:25;;;;;;;1999.90;999.90;;;;;;;-3.78;80.86;96401.78;5093977;28;20048;-63
2023/12/10 03:37:52;;;;;;;1999.90;999.90;;;;;;;-3.73;81.28;96404.41;5094032;28;20137;-61
2023/12/10 03:40:19;;;;;;;1999.90;999.90;;;;;;;-3.65;81.52;96407.09;5093776;28;20490;-63
2023/12/10 03:42:47;;;;;;;1999.90;999.90;;;;;;;-3.62;81.67;96410.56;5093751;28;20105;-64
2023/12/10 03:45:14;;;;;;;1999.90;999.90;;;;;;;-3.53;81.79;96414.09;5093803;28;20059;-63
2023/12/10 03:47:46;;;;;;;1999.90;999.90;;;;;;;-3.56;81.69;96408.09;5093950;28;20055;-61
2023/12/10 03:50:14;;;;;;;1999.90;999.90;;;;;;;-3.52;81.85;96411.56;5093963;28;20084;-63
2023/12/10 03:52:42;;;;;;;1999.90;999.90;;;;;;;-3.55;81.98;96397.00;5093735;28;20131;-63
2023/12/10 03:55:10;;;;;;;1999.90;999.90;;;;;;;-3.51;81.96;96408.16;5093775;28;20040;-63
2023/12/10 03:57:37;;;;;;;1999.90;999.90;;;;;;;-3.48;82.34;96408.22;5093562;28;20056;-60
2023/12/10 04:00:05;;;;;;;1999.90;999.90;;;;;;;-3.47;82.30;96419.28;5093585;28;20044;-60
2023/12/10 04:02:33;;;;;;;1999.90;999.90;;;;;;;-3.41;82.48;96414.28;5093546;28;20044;-62
2023/12/10 04:05:00;;;;;;;1999.90;999.90;;;;;;;-3.36;82.28;96417.78;5093468;28;20051;-66
2023/12/10 04:07:27;;;;;;;1999.90;999.90;;;;;;;-3.32;82.52;96411.00;5093495;28;20044;-63
2023/12/10 04:09:57;;;;;;;1999.90;999.90;;;;;;;-3.27;82.16;96416.19;5092815;28;20153;-60
2023/12/10 04:12:24;;;;;;;1999.90;999.90;;;;;;;-3.28;82.34;96419.59;5093437;28;20044;-63
2023/12/10 04:14:51;;;;;;;1999.90;999.90;;;;;;;-3.25;82.43;96427.31;5093592;28;20044;-61
2023/12/10 04:17:18;;;;;;;1999.90;999.90;;;;;;;-3.21;82.75;96426.50;5093346;28;20044;-62
2023/12/10 04:19:46;;;;;;;1999.90;999.90;;;;;;;-3.18;82.67;96427.44;5093285;28;20261;-64
2023/12/10 04:22:13;;;;;;;1999.90;999.90;;;;;;;-3.20;82.99;96425.66;5093220;28;20131;-63
2023/12/10 04:24:40;;;;;;;1999.90;999.90;;;;;;;-3.16;82.93;96432.56;5093277;28;20426;-64
2023/12/10 04:27:08;;;;;;;1999.90;999.90;;;;;;;-3.13;83.09;96435.16;5093342;28;20048;-61
2023/12/10 04:29:36;;;;;;;1999.90;999.90;;;;;;;-3.13;83.07;96427.47;5092934;28;20052;-64
2023/12/10 04:32:04;;;;;;;1999.90;999.90;;;;;;;-3.11;82.93;96424.94;5093214;28;20565;-64
2023/12/10 04:34:31;;;;;;;1999.90;999.90;;;;;;;-3.12;83.05;96426.66;5093133;28;20048;-63
2023/12/10 04:36:59;;;;;;;1999.90;999.90;;;;;;;-3.10;82.44;96426.66;5093134;28;20048;-65
2023/12/10 04:39:26;;;;;;;1999.90;999.90;;;;;;;-3.08;82.45;96422.41;5093306;28;20059;-64
2023/12/10 04:41:53;;;;;;;1999.90;999.90;;;;;;;-3.09;82.56;96421.56;5093020;28;20055;-65
2023/12/10 04:44:22;;;;;;;1999.90;999.90;;;;;;;-3.08;82.40;96418.16;5093005;28;20565;-62
2023/12/10 04:46:49;;;;;;;1999.90;999.90;;;;;;;-3.07;82.12;96416.47;5093082;28;20052;-60
2023/12/10 04:49:17;;;;;;;1999.90;999.90;;;;;;;-3.10;82.13;96413.88;5093074;28;20056;-64
2023/12/10 04:51:44;;;;;;;1999.90;999.90;;;;;;;-3.14;82.33;96414.66;5092843;28;20390;-64
2023/12/10 04:54:11;;;;;;;1999.90;999.90;;;;;;;-3.14;82.57;96418.06;5092949;28;20048;-64
2023/12/10 04:56:39;;;;;;;1999.90;999.90;;;;;;;-3.10;82.58;96424.94;5093001;28;20047;-61
2023/12/10 04:59:06;;;;;;;1999.90;999.90;;;;;;;-3.09;82.53;96421.56;5092929;28;20052;-64
2023/12/10 05:01:35;;;;;;;1999.90;999.90;;;;;;;-3.11;82.37;96413.00;5092802;28;20052;-65
2023/12/10 05:04:02;;;;;;;1999.90;999.90;;;;;;;-3.15;82.52;96403.56;5092969;28;20387;-63
2023/12/10 05:06:30;;;;;;;1999.90;999.90;;;;;;;-3.21;82.71;96404.34;5093053;28;20130;-64
2023/12/10 05:08:57;;;;;;;1999.90;999.90;;;;;;;-3.16;83.32;96399.28;5092802;28;20055;-62
2023/12/10 05:11:24;;;;;;;1999.90;999.90;;;;;;;-3.10;83.47;96399.34;5092868;28;20048;-64
2023/12/10 05:13:51;;;;;;;1999.90;999.90;;;;;;;-3.14;83.67;96391.59;5092747;28;20044;-65
2023/12/10 05:16:19;;;;;;;1999.90;999.90;;;;;;;-3.10;83.93;96401.91;5092712;28;20044;-62
2023/12/10 05:18:47;;;;;;;1999.90;999.90;;;;;;;-3.10;83.97;96403.63;5092602;28;20428;-64
2023/12/10 05:21:15;;;;;;;1999.90;999.90;;;;;;;-3.03;84.18;96415.69;5094591;28;20489;-63
2023/12/10 05:23:42;;;;;;;1999.90;999.90;;;;;;;-2.99;83.77;96421.69;5096574;28;20135;-64
2023/12/10 05:26:10;;;;;;;1999.90;999.90;;;;;;;-3.00;83.92;96425.09;5096514;28;20055;-63
2023/12/10 05:28:37;;;;;;;1999.90;999.90;;;;;;;-2.98;84.00;96428.53;5096475;28;20044;-64
2023/12/10 05:31:04;;;;;;;1999.90;999.90;;;;;;;-2.93;84.05;96420.06;5096405;28;20040;-64
2023/12/10 05:33:31;;;;;;;1999.90;999.90;;;;;;;-2.86;84.25;96423.56;5096485;28;20040;-61
2023/12/10 05:36:00;;;;;;;1999.90;999.90;;;;;;;-2.80;84.51;96420.25;5096451;28;20044;-64
2023/12/10 05:38:27;;;;;;;1999.90;999.90;;;;;;;-2.73;84.28;96418.63;5096162;28;20048;-62
2023/12/10 05:40:54;;;;;;;1999.90;999.90;;;;;;;-2.68;84.54;96422.09;5096221;28;20199;-64
2023/12/10 05:43:22;;;;;;;1999.90;999.90;;;;;;;-2.68;84.21;96417.81;5096165;28;20047;-62
2023/12/10 05:45:49;;;;;;;1999.90;999.90;;;;;;;-2.63;84.30;96419.56;5096078;28;20109;-63
2023/12/10 05:48:17;;;;;;;1999.90;999.90;;;;;;;-2.61;84.47;96416.22;5096141;28;20048;-65
2023/12/10 05:50:45;;;;;;;1999.90;999.90;;;;;;;-2.55;84.08;96428.22;5096152;28;20044;-62
2023/12/10 05:53:13;;;;;;;1999.90;999.90;;;;;;;-2.52;84.28;96424.84;5095919;28;20083;-61
2023/12/10 05:55:41;;;;;;;1999.90;999.90;;;;;;;-2.49;84.21;96437.69;5096008;28;20108;-63
2023/12/10 05:58:09;;;;;;;1999.90;999.90;;;;;;;-2.45;84.18;96435.19;5095711;28;20490;-63
2023/12/10 06:00:36;;;;;;;1999.90;999.90;;;;;;;-2.45;84.17;96437.75;5095829;28;20122;-64
2023/12/10 06:03:03;;;;;;;1999.90;999.90;;;;;;;-2.40;84.40;96435.25;5095926;28;20048;-61
2023/12/10 06:05:30;;;;;;;1999.90;999.90;;;;;;;-2.39;84.26;96439.50;5095814;28;20478;-65
2023/12/10 06:07:57;;;;;;;1999.90;999.90;;;;;;;-2.35;84.36;96437.84;5095837;28;20192;-65
2023/12/10 06:10:26;;;;;;;1999.90;999.90;;;;;;;-2.33;84.34;96436.16;5095758;28;20051;-65
2023/12/10 06:12:54;;;;;;;1999.90;999.90;;;;;;;-2.29;84.20;96446.47;5095719;28;20064;-64
2023/12/10 06:15:21;;;;;;;1999.90;999.90;;;;;;;-2.28;84.09;96449.91;5095591;28;20105;-62
2023/12/10 06:17:48;;;;;;;1999.90;999.90;;;;;;;-2.24;84.08;96454.19;5095494;28;20058;-64
2023/12/10 06:20:15;;;;;;;1999.90;999.90;;;;;;;-2.20;84.10;96453.38;5095440;28;20414;-65
2023/12/10 06:22:43;;;;;;;1999.90;999.90;;;;;;;-2.15;84.40;96448.31;5095290;28;20405;-61
2023/12/10 06:25:10;;;;;;;1999.90;999.90;;;;;;;-2.14;84.68;96444.91;5095297;28;20117;-61
2023/12/10 06:27:39;;;;;;;1999.90;999.90;;;;;;;-2.11;84.78;96444.94;5095533;28;20052;-65
2023/12/10 06:30:08;;;;;;;1999.90;999.90;;;;;;;-2.03;84.97;96445.03;5095106;28;20056;-64
2023/12/10 06:32:36;;;;;;;1999.90;999.90;;;;;;;-1.96;84.91;96454.50;5094518;28;20047;-65
2023/12/10 06:35:03;;;;;;;1999.90;999.90;;;;;;;-1.89;85.25;96452.00;5095350;28;20055;-64
2023/12/10 06:37:32;;;;;;;1999.90;999.90;;;;;;;-1.87;85.77;96450.31;5095179;28;20052;-62
2023/12/10 06:39:59;;;;;;;1999.90;999.90;;;;;;;-1.83;85.96;96450.38;5095162;28;20063;-64
2023/12/10 06:42:27;;;;;;;1999.90;999.90;;;;;;;-1.79;85.92;96456.38;5094903;28;20417;-61
2023/12/10 06:44:56;;;;;;;1999.90;999.90;;;;;;;-1.73;85.89;96451.28;5094940;28;20048;-64
2023/12/10 06:47:23;;;;;;;1999.90;999.90;;;;;;;-1.68;86.25;96448.78;5094939;28;20097;-65
2023/12/10 06:49:51;;;;;;;1999.90;999.90;;;;;;;-1.64;86.16;96450.53;5094922;28;20040;-64
2023/12/10 06:52:18;;;;;;;1999.90;999.90;;;;;;;-1.55;86.36;96454.88;5094808;28;20051;-63
2023/12/10 06:54:46;;;;;;;1999.90;999.90;;;;;;;-1.49;86.75;96452.34;5094899;28;20111;-65
2023/12/10 06:57:13;;;;;;;1999.90;999.90;;;;;;;-1.41;86.55;96452.44;5094924;28;20119;-63
2023/12/10 06:59:40;;;;;;;1999.90;999.90;;;;;;;-1.33;86.39;96450.75;5094731;28;20401;-63
2023/12/10 07:02:09;;;;;;;1999.90;999.90;;;;;;;-1.30;86.20;96448.22;5094622;28;20139;-60
2023/12/10 07:04:37;;;;;;;1999.90;999.90;;;;;;;-1.23;86.41;96450.84;5094633;28;20406;-62
2023/12/10 07:07:04;;;;;;;1999.90;999.90;;;;;;;-1.20;86.52;96443.16;5094740;28;20044;-62
2023/12/10 07:09:31;;;;;;;1999.90;999.90;;;;;;;-1.12;87.01;96448.34;5094515;28;20077;-63
2023/12/10 07:12:00;;;;;;;1999.90;999.90;;;;;;;-1.05;86.93;96453.53;5094450;28;20048;-63
2023/12/10 07:14:29;;;;;;;1999.90;999.90;;;;;;;-0.97;87.30;96461.28;5094569;28;20040;-60
2023/12/10 07:16:58;;;;;;;1999.90;999.90;;;;;;;-0.88;87.40;96454.50;5094257;28;20055;-62
2023/12/10 07:19:27;;;;;;;1999.90;999.90;;;;;;;-0.80;87.84;96458.84;5094392;28;20070;-64
2023/12/10 07:21:55;;;;;;;1999.90;999.90;;;;;;;-0.70;88.15;96456.28;5094140;28;20088;-60
2023/12/10 07:24:23;;;;;;;1999.90;999.90;;;;;;;-0.62;88.57;96457.19;5094370;28;20536;-62
2023/12/10 07:26:51;;;;;;;1999.90;999.90;;;;;;;-0.53;88.05;96458.97;5094045;28;20126;-61
2023/12/10 07:29:19;;;;;;;1999.90;999.90;;;;;;;-0.47;87.58;96463.25;5093910;28;20171;-63
2023/12/10 07:31:47;;;;;;;1999.90;999.90;;;;;;;-0.43;87.19;96471.00;5094160;28;20047;-60
2023/12/10 07:34:17;;;;;;;1999.90;999.90;;;;;;;-0.36;87.44;96471.88;5094170;28;20044;-61
2023/12/10 07:36:47;;;;;;;1999.90;999.90;;;;;;;-0.30;87.29;96474.47;5093273;28;20052;-62
2023/12/10 07:39:15;;;;;;;1999.90;999.90;;;;;;;-0.52;87.30;96481.22;5094082;28;20052;-63
2023/12/10 07:41:42;;;;;;;1999.90;999.90;;;;;;;-0.54;86.83;96480.38;5093753;28;20507;-63
2023/12/10 07:44:10;;;;;;;1999.90;999.90;;;;;;;-0.54;86.70;96486.34;5093721;28;20089;-62
2023/12/10 07:46:38;;;;;;;1999.90;999.90;;;;;;;-0.44;86.63;96491.56;5093864;28;20048;-62
2023/12/10 07:49:06;;;;;;;1999.90;999.90;;;;;;;-0.34;86.56;96487.31;5093769;28;20497;-61
2023/12/10 07:51:33;;;;;;;1999.90;999.90;;;;;;;-0.26;86.25;96498.50;5093819;28;20052;-62
2023/12/10 07:54:03;;;;;;;1999.90;999.90;;;;;;;-0.17;85.63;96495.97;5093648;28;20075;-63
2023/12/10 07:56:31;;;;;;;1999.90;999.90;;;;;;;-0.06;85.17;96493.41;5093681;28;20048;-62
2023/12/10 07:58:58;;;;;;;1999.90;999.90;;;;;;;-0.06;84.52;96498.56;5093628;28;20048;-62
2023/12/10 08:01:26;;;;;;;1999.90;999.90;;;;;;;0.04;84.10;96496.91;5093696;28;20093;-66
2023/12/10 08:03:53;;;;;;;1999.90;999.90;;;;;;;0.09;84.09;96491.75;5093514;28;20048;-66
2023/12/10 08:06:20;;;;;;;1999.90;999.90;;;;;;;0.20;84.17;96495.22;5093395;28;20056;-65
2023/12/10 08:08:48;;;;;;;1999.90;999.90;;;;;;;0.27;83.79;96490.09;5093584;28;20048;-62
2023/12/10 08:11:17;;;;;;;1999.90;999.90;;;;;;;0.31;84.03;96487.53;5093310;28;20482;-63
2023/12/10 08:13:45;;;;;;;1999.90;999.90;;;;;;;0.33;84.20;96483.22;5093487;28;20052;-62
2023/12/10 08:16:13;;;;;;;1999.90;999.90;;;;;;;0.40;84.12;96478.09;5093377;28;20195;-64
2023/12/10 08:18:41;;;;;;;1999.90;999.90;;;;;;;0.47;84.55;96477.22;5093431;28;20134;-65
2023/12/10 08:21:09;;;;;;;1999.90;999.90;;;;;;;0.55;84.63;96472.09;5093410;28;20048;-66
2023/12/10 08:23:36;;;;;;;1999.90;999.90;;;;;;;0.58;85.17;96480.69;5093269;28;20059;-64
2023/12/10 08:26:04;;;;;;;1999.90;999.90;;;;;;;0.62;85.32;96476.38;5093104;28;20051;-62
2023/12/10 08:28:33;;;;;;;1999.90;999.90;;;;;;;0.65;85.51;96478.97;5092954;28;20061;-63
2023/12/10 08:31:00;;;;;;;1999.90;999.90;;;;;;;0.64;85.97;96482.41;5093319;28;20044;-64
2023/12/10 08:33:32;;;;;;;1999.90;999.90;;;;;;;0.61;85.63;96496.13;5093199;28;20127;-64
2023/12/10 08:35:59;;;;;;;1999.90;999.90;;;;;;;0.57;85.34;96504.69;5093128;28;20062;-66
2023/12/10 08:38:26;;;;;;;1999.90;999.90;;;;;;;0.59;85.41;96503.00;5093343;28;20052;-65
2023/12/10 08:40:53;;;;;;;1999.90;999.90;;;;;;;0.59;85.05;96499.56;5093065;28;20051;-62
2023/12/10 08:43:21;;;;;;;1999.90;999.90;;;;;;;0.55;85.02;96498.72;5093110;28;20048;-62
2023/12/10 08:45:51;;;;;;;1999.90;999.90;;;;;;;0.59;84.66;96490.13;5093056;28;20040;-64
2023/12/10 08:48:18;;;;;;;1999.90;999.90;;;;;;;0.60;84.46;96478.97;5093137;28;20048;-65
2023/12/10 08:50:45;;;;;;;1999.90;999.90;;;;;;;0.65;84.00;96476.41;5093094;28;20294;-64
2023/12/10 08:53:13;;;;;;;1999.90;999.90;;;;;;;0.69;84.23;96472.94;5093073;28;20048;-65
2023/12/10 08:55:40;;;;;;;1999.90;999.90;;;;;;;0.71;84.35;96481.56;5093921;28;20490;-64
2023/12/10 08:58:09;;;;;;;1999.90;999.90;;;;;;;0.77;84.83;96479.81;5097134;28;20460;-63
2023/12/10 09:00:38;;;;;;;1999.90;999.90;;;;;;;0.72;85.49;96478.09;5097021;28;20122;-65
2023/12/10 09:03:06;;;;;;;1999.90;999.90;;;;;;;0.77;85.24;96478.13;5097012;28;20048;-62
2023/12/10 09:05:35;;;;;;;1999.90;999.90;;;;;;;0.82;85.04;96470.38;5096993;28;20071;-64
2023/12/10 09:08:02;;;;;;;1999.90;999.90;;;;;;;0.87;85.66;96464.38;5096860;28;20051;-63
2023/12/10 09:10:30;;;;;;;1999.90;999.90;;;;;;;0.94;85.19;96465.25;5096783;28;20101;-64
2023/12/10 09:12:57;;;;;;;1999.90;999.90;;;;;;;0.97;85.34;96452.31;5096729;28;20134;-61
2023/12/10 09:15:25;;;;;;;1999.90;999.90;;;;;;;0.88;84.35;96448.03;5096712;28;20398;-65
2023/12/10 09:17:53;;;;;;;1999.90;999.90;;;;;;;0.87;85.13;96451.50;5096776;28;20044;-65
2023/12/10 09:20:23;;;;;;;1999.90;999.90;;;;;;;0.87;85.31;96443.75;5096644;28;20051;-64
2023/12/10 09:22:50;;;;;;;1999.90;999.90;;;;;;;0.81;86.03;96441.19;5096460;28;20509;-65
2023/12/10 09:25:18;;;;;;;1999.90;999.90;;;;;;;0.81;86.21;96441.19;5096715;28;20047;-61
2023/12/10 09:27:45;;;;;;;1999.90;999.90;;;;;;;0.91;86.14;96441.19;5096427;28;20482;-64
2023/12/10 09:30:14;;;;;;;1999.90;999.90;;;;;;;1.02;86.42;96428.28;5096384;28;20056;-62
2023/12/10 09:32:42;;;;;;;1999.90;999.90;;;;;;;1.10;86.37;96426.53;5096446;28;20044;-63
2023/12/10 09:35:10;;;;;;;1999.90;999.90;;;;;;;1.20;86.41;96417.94;5096372;28;20048;-65
2023/12/10 09:37:39;;;;;;;1999.90;999.90;;;;;;;1.15;86.75;96424.84;5096376;28;20044;-65
2023/12/10 09:40:08;;;;;;;1999.90;999.90;;;;;;;1.12;87.39;96419.69;5096251;28;20048;-62
2023/12/10 09:42:36;;;;;;;1999.90;999.90;;;;;;;1.18;87.31;96413.66;5096180;28;20383;-64
2023/12/10 09:45:04;;;;;;;1999.90;999.90;;;;;;;1.28;87.35;96415.34;5096042;28;20044;-63
2023/12/10 09:47:33;;;;;;;1999.90;999.90;;;;;;;1.33;86.99;96407.59;5096163;28;20044;-64
2023/12/10 09:50:05;;;;;;;1999.90;999.90;;;;;;;1.38;87.82;96411.00;5096121;28;20040;-64
2023/12/10 09:52:33;;;;;;;1999.90;999.90;;;;;;;1.44;87.17;96410.16;5096018;28;20051;-63
2023/12/10 09:55:02;;;;;;;1999.90;999.90;;;;;;;1.44;87.14;96397.25;5096017;28;20482;-62
2023/12/10 09:57:30;;;;;;;1999.90;999.90;;;;;;;1.48;87.47;96397.22;5095944;28;20044;-63
2023/12/10 09:59:59;;;;;;;1999.90;999.90;;;;;;;1.49;87.16;96390.34;5095924;28;20044;-64
2023/12/10 10:02:32;;;;;;;1999.90;999.90;;;;;;;1.40;87.22;96388.66;5095731;28;20503;-64
2023/12/10 10:05:00;;;;;;;1999.90;999.90;;;;;;;1.41;87.16;96392.94;5095799;28;20044;-63
2023/12/10 10:07:31;;;;;;;1999.90;999.90;;;;;;;1.38;86.84;96382.63;5094453;28;20048;-65
2023/12/10 10:09:59;;;;;;;1999.90;999.90;;;;;;;1.44;86.54;96384.38;5095708;28;20048;-65
2023/12/10 10:12:31;;;;;;;1999.90;999.90;;;;;;;1.53;86.51;96379.13;5095659;28;20498;-63
2023/12/10 10:15:00;;;;;;;1999.90;999.90;;;;;;;1.61;86.85;96376.53;5095618;28;20406;-65
2023/12/10 10:17:29;;;;;;;1999.90;999.90;;;;;;;1.66;86.75;96373.94;5095439;28;20048;-62
2023/12/10 10:19:57;;;;;;;1999.90;999.90;;;;;;;1.75;86.18;96372.16;5095622;28;20048;-63
2023/12/10 10:22:25;;;;;;;1999.90;999.90;;;;;;;1.77;85.64;96373.00;5095282;28;20087;-66
2023/12/10 10:24:53;;;;;;;1999.90;999.90;;;;;;;1.85;85.67;96369.53;5095375;28;20051;-65
2023/12/10 10:27:21;;;;;;;1999.90;999.90;;;;;;;1.84;85.52;96367.81;5095283;28;20520;-63
2023/12/10 10:29:53;;;;;;;1999.90;999.90;;;;;;;1.85;85.54;96348.88;5095178;28;20044;-64
2023/12/10 10:32:22;;;;;;;1999.90;999.90;;;;;;;1.90;85.19;96360.03;5095298;28;20050;-62
2023/12/10 10:34:51;;;;;;;1999.90;999.90;;;;;;;1.99;84.37;96356.53;5095289;28;20075;-64
2023/12/10 10:37:19;;;;;;;1999.90;999.90;;;;;;;2.05;84.62;96364.25;5095297;28;20048;-63
2023/12/10 10:39:49;;;;;;;1999.90;999.90;;;;;;;2.07;84.38;96357.34;5095156;28;20055;-61
2023/12/10 10:42:18;;;;;;;1999.90;999.90;;;;;;;2.00;85.08;96346.22;5094531;28;20044;-65
2023/12/10 10:44:46;;;;;;;1999.90;999.90;;;;;;;2.04;85.48;96354.78;5095113;28;20128;-64
2023/12/10 10:47:18;;;;;;;1999.90;999.90;;;;;;;2.10;85.74;96349.56;5094974;28;20490;-64
2023/12/10 10:49:51;;;;;;;1999.90;999.90;;;;;;;2.20;85.29;96346.94;5095009;28;20444;-60
2023/12/10 10:52:22;;;;;;;1999.90;999.90;;;;;;;2.20;85.68;96336.59;5094818;28;20052;-63
2023/12/10 10:54:54;;;;;;;1999.90;999.90;;;;;;;2.26;85.07;96334.81;5094877;28;20109;-63
2023/12/10 10:57:31;;;;;;;1999.90;999.90;;;;;;;2.30;84.40;96330.50;5095046;28;20058;-63
2023/12/10 10:59:59;;;;;;;1999.90;999.90;;;;;;;2.37;84.47;96321.81;5094673;28;20521;-63